EDHL/LBC METAR and TAF weather

Enter ICAO airport designator
Station Type Date Time Source
EDHL METAR 2021/03/01 09:20 UTC NOAA

EDHL 010920Z VRB03KT 9999 BKN009 05/03 Q1036


Station Type Date Time Source
EDHL Decoded METAR 2021/03/01 09:20 UTC NOAA

Luebeck-Blankensee, Germany (EDHL) 53-49N 010-42E 15M
Mar 01, 2021 - 04:20 AM EST / 2021.03.01 0920 UTC
Wind: Variable at 3 MPH (3 KT):0
Visibility: greater than 7 mile(s):0
Sky conditions: mostly cloudy
Temperature: 41 F (5 C)
Dew Point: 37 F (3 C)
Relative Humidity: 86%
Pressure (altimeter): 30.59 in. Hg (1036 hPa)
ob: EDHL 010920Z VRB03KT 9999 BKN009 05/03 Q1036
cycle: 9

Station Type Date Time Source
EDHL TAF 2010/02/22 14:20 UTC NOAA

METAR EDHL 221420Z 15004KT 110V180 9999 FEW039 SCT120 05/02 Q0990
RMK X

Example: see airport list